sensor_id;sensor_type;location;lat;lon;timestamp;P1;durP1;ratioP1;P2;durP2;ratioP2
20445;SDS011;10382;49.140;9.234;2023-11-21T00:01:32;1.90;;;0.93;;
20445;SDS011;10382;49.140;9.234;2023-11-21T00:03:59;6.93;;;1.50;;
20445;SDS011;10382;49.140;9.234;2023-11-21T00:06:26;5.20;;;1.50;;
20445;SDS011;10382;49.140;9.234;2023-11-21T00:08:55;2.43;;;2.23;;
20445;SDS011;10382;49.140;9.234;2023-11-21T00:11:22;3.30;;;1.20;;
20445;SDS011;10382;49.140;9.234;2023-11-21T00:13:50;1.30;;;1.20;;
20445;SDS011;10382;49.140;9.234;2023-11-21T00:16:18;2.30;;;2.10;;
20445;SDS011;10382;49.140;9.234;2023-11-21T00:18:47;6.37;;;2.37;;
20445;SDS011;10382;49.140;9.234;2023-11-21T00:21:14;3.50;;;1.67;;
20445;SDS011;10382;49.140;9.234;2023-11-21T00:23:40;3.43;;;1.60;;
20445;SDS011;10382;49.140;9.234;2023-11-21T00:26:07;2.87;;;2.70;;
20445;SDS011;10382;49.140;9.234;2023-11-21T00:28:35;3.87;;;1.40;;
20445;SDS011;10382;49.140;9.234;2023-11-21T00:31:01;4.63;;;1.80;;
20445;SDS011;10382;49.140;9.234;2023-11-21T00:33:30;2.80;;;1.63;;
20445;SDS011;10382;49.140;9.234;2023-11-21T00:35:57;5.57;;;1.90;;
20445;SDS011;10382;49.140;9.234;2023-11-21T00:38:25;1.53;;;1.20;;
20445;SDS011;10382;49.140;9.234;2023-11-21T00:40:52;4.07;;;1.77;;
20445;SDS011;10382;49.140;9.234;2023-11-21T00:43:21;3.03;;;1.67;;
20445;SDS011;10382;49.140;9.234;2023-11-21T00:45:48;2.43;;;1.50;;
20445;SDS011;10382;49.140;9.234;2023-11-21T00:48:15;5.53;;;2.80;;
20445;SDS011;10382;49.140;9.234;2023-11-21T00:50:44;2.47;;;2.27;;
20445;SDS011;10382;49.140;9.234;2023-11-21T00:53:11;4.60;;;2.37;;
20445;SDS011;10382;49.140;9.234;2023-11-21T00:55:38;4.43;;;2.43;;
20445;SDS011;10382;49.140;9.234;2023-11-21T00:58:05;4.67;;;1.97;;
20445;SDS011;10382;49.140;9.234;2023-11-21T01:00:32;5.17;;;4.43;;
20445;SDS011;10382;49.140;9.234;2023-11-21T01:02:59;3.77;;;2.93;;
20445;SDS011;10382;49.140;9.234;2023-11-21T01:05:26;3.50;;;2.20;;
20445;SDS011;10382;49.140;9.234;2023-11-21T01:07:54;2.90;;;2.70;;
20445;SDS011;10382;49.140;9.234;2023-11-21T01:10:21;8.77;;;4.70;;
20445;SDS011;10382;49.140;9.234;2023-11-21T01:12:48;2.13;;;1.87;;
20445;SDS011;10382;49.140;9.234;2023-11-21T01:15:15;4.57;;;1.63;;
20445;SDS011;10382;49.140;9.234;2023-11-21T01:17:41;6.00;;;5.20;;
20445;SDS011;10382;49.140;9.234;2023-11-21T01:20:09;2.77;;;2.27;;
20445;SDS011;10382;49.140;9.234;2023-11-21T01:22:37;2.63;;;2.43;;
20445;SDS011;10382;49.140;9.234;2023-11-21T01:25:06;2.20;;;1.53;;
20445;SDS011;10382;49.140;9.234;2023-11-21T01:27:33;3.27;;;2.03;;
20445;SDS011;10382;49.140;9.234;2023-11-21T01:30:01;5.53;;;2.07;;
20445;SDS011;10382;49.140;9.234;2023-11-21T01:32:28;8.60;;;2.80;;
20445;SDS011;10382;49.140;9.234;2023-11-21T01:34:55;2.63;;;1.70;;
20445;SDS011;10382;49.140;9.234;2023-11-21T01:37:22;11.90;;;3.73;;
20445;SDS011;10382;49.140;9.234;2023-11-21T01:39:49;3.53;;;1.87;;
20445;SDS011;10382;49.140;9.234;2023-11-21T01:42:17;2.70;;;1.73;;
20445;SDS011;10382;49.140;9.234;2023-11-21T01:44:44;7.70;;;1.80;;
20445;SDS011;10382;49.140;9.234;2023-11-21T01:47:11;8.90;;;3.67;;
20445;SDS011;10382;49.140;9.234;2023-11-21T01:49:39;8.50;;;2.67;;
20445;SDS011;10382;49.140;9.234;2023-11-21T01:52:07;4.10;;;1.80;;
20445;SDS011;10382;49.140;9.234;2023-11-21T01:54:36;4.20;;;2.57;;
20445;SDS011;10382;49.140;9.234;2023-11-21T01:57:03;1.53;;;1.43;;
20445;SDS011;10382;49.140;9.234;2023-11-21T01:59:33;2.47;;;1.50;;
20445;SDS011;10382;49.140;9.234;2023-11-21T02:02:01;1.30;;;1.13;;
20445;SDS011;10382;49.140;9.234;2023-11-21T02:04:30;10.33;;;2.20;;
20445;SDS011;10382;49.140;9.234;2023-11-21T02:06:57;6.17;;;1.50;;
20445;SDS011;10382;49.140;9.234;2023-11-21T02:09:24;1.63;;;1.40;;
20445;SDS011;10382;49.140;9.234;2023-11-21T02:11:52;1.63;;;1.10;;
20445;SDS011;10382;49.140;9.234;2023-11-21T02:14:19;3.07;;;1.83;;
20445;SDS011;10382;49.140;9.234;2023-11-21T02:16:50;1.37;;;1.27;;
20445;SDS011;10382;49.140;9.234;2023-11-21T02:19:17;2.00;;;1.80;;
20445;SDS011;10382;49.140;9.234;2023-11-21T02:21:47;2.73;;;1.60;;
20445;SDS011;10382;49.140;9.234;2023-11-21T02:24:17;2.83;;;1.40;;
20445;SDS011;10382;49.140;9.234;2023-11-21T02:26:45;2.90;;;1.93;;
20445;SDS011;10382;49.140;9.234;2023-11-21T02:29:12;1.60;;;1.50;;
20445;SDS011;10382;49.140;9.234;2023-11-21T02:31:51;2.70;;;2.50;;
20445;SDS011;10382;49.140;9.234;2023-11-21T02:34:19;3.50;;;2.70;;
20445;SDS011;10382;49.140;9.234;2023-11-21T02:36:47;1.83;;;1.73;;
20445;SDS011;10382;49.140;9.234;2023-11-21T02:39:14;6.23;;;1.90;;
20445;SDS011;10382;49.140;9.234;2023-11-21T02:41:43;4.83;;;1.10;;
20445;SDS011;10382;49.140;9.234;2023-11-21T02:44:10;2.00;;;1.70;;
20445;SDS011;10382;49.140;9.234;2023-11-21T02:46:37;2.20;;;1.23;;
20445;SDS011;10382;49.140;9.234;2023-11-21T02:49:04;2.13;;;1.70;;
20445;SDS011;10382;49.140;9.234;2023-11-21T02:51:31;3.43;;;1.30;;
20445;SDS011;10382;49.140;9.234;2023-11-21T02:53:58;1.57;;;1.57;;
20445;SDS011;10382;49.140;9.234;2023-11-21T02:56:27;4.13;;;1.80;;
20445;SDS011;10382;49.140;9.234;2023-11-21T02:58:56;2.60;;;1.93;;
20445;SDS011;10382;49.140;9.234;2023-11-21T03:01:25;2.87;;;2.30;;
20445;SDS011;10382;49.140;9.234;2023-11-21T03:03:52;6.97;;;1.60;;
20445;SDS011;10382;49.140;9.234;2023-11-21T03:06:20;2.73;;;2.60;;
20445;SDS011;10382;49.140;9.234;2023-11-21T03:08:47;1.93;;;1.20;;
20445;SDS011;10382;49.140;9.234;2023-11-21T03:11:14;1.30;;;1.20;;
20445;SDS011;10382;49.140;9.234;2023-11-21T03:13:41;3.40;;;2.10;;
20445;SDS011;10382;49.140;9.234;2023-11-21T03:16:09;1.60;;;1.50;;
20445;SDS011;10382;49.140;9.234;2023-11-21T03:18:37;1.60;;;1.50;;
20445;SDS011;10382;49.140;9.234;2023-11-21T03:21:04;3.03;;;2.30;;
20445;SDS011;10382;49.140;9.234;2023-11-21T03:23:33;1.23;;;0.87;;
20445;SDS011;10382;49.140;9.234;2023-11-21T03:26:00;3.80;;;1.97;;
20445;SDS011;10382;49.140;9.234;2023-11-21T03:28:27;1.97;;;1.77;;
20445;SDS011;10382;49.140;9.234;2023-11-21T03:30:55;3.37;;;2.47;;
20445;SDS011;10382;49.140;9.234;2023-11-21T03:33:23;6.83;;;1.53;;
20445;SDS011;10382;49.140;9.234;2023-11-21T03:35:50;2.33;;;1.67;;
20445;SDS011;10382;49.140;9.234;2023-11-21T03:38:18;1.50;;;1.23;;
20445;SDS011;10382;49.140;9.234;2023-11-21T03:40:45;1.67;;;1.57;;
20445;SDS011;10382;49.140;9.234;2023-11-21T03:43:12;3.33;;;1.40;;
20445;SDS011;10382;49.140;9.234;2023-11-21T03:45:40;4.87;;;1.47;;
20445;SDS011;10382;49.140;9.234;2023-11-21T03:48:06;2.20;;;1.40;;
20445;SDS011;10382;49.140;9.234;2023-11-21T03:50:35;10.30;;;1.60;;
20445;SDS011;10382;49.140;9.234;2023-11-21T03:53:02;2.43;;;2.23;;
20445;SDS011;10382;49.140;9.234;2023-11-21T03:55:29;3.50;;;1.23;;
20445;SDS011;10382;49.140;9.234;2023-11-21T03:57:56;2.77;;;1.40;;
20445;SDS011;10382;49.140;9.234;2023-11-21T04:00:24;2.63;;;1.93;;
20445;SDS011;10382;49.140;9.234;2023-11-21T04:02:51;5.00;;;2.30;;
20445;SDS011;10382;49.140;9.234;2023-11-21T04:05:19;3.27;;;1.63;;
20445;SDS011;10382;49.140;9.234;2023-11-21T04:07:48;1.30;;;1.20;;
20445;SDS011;10382;49.140;9.234;2023-11-21T04:10:15;3.20;;;1.60;;
20445;SDS011;10382;49.140;9.234;2023-11-21T04:12:41;4.47;;;1.77;;
20445;SDS011;10382;49.140;9.234;2023-11-21T04:15:09;2.20;;;1.33;;
20445;SDS011;10382;49.140;9.234;2023-11-21T04:17:36;2.70;;;1.50;;
20445;SDS011;10382;49.140;9.234;2023-11-21T04:20:03;1.60;;;1.50;;
20445;SDS011;10382;49.140;9.234;2023-11-21T04:22:33;4.57;;;0.90;;
20445;SDS011;10382;49.140;9.234;2023-11-21T04:25:01;4.80;;;1.73;;
20445;SDS011;10382;49.140;9.234;2023-11-21T04:27:29;2.57;;;1.30;;
20445;SDS011;10382;49.140;9.234;2023-11-21T04:29:55;2.70;;;1.20;;
20445;SDS011;10382;49.140;9.234;2023-11-21T04:32:22;3.67;;;1.43;;
20445;SDS011;10382;49.140;9.234;2023-11-21T04:34:49;4.23;;;1.90;;
20445;SDS011;10382;49.140;9.234;2023-11-21T04:37:16;5.77;;;1.93;;
20445;SDS011;10382;49.140;9.234;2023-11-21T04:39:43;1.47;;;1.10;;
20445;SDS011;10382;49.140;9.234;2023-11-21T04:42:11;5.33;;;1.40;;
20445;SDS011;10382;49.140;9.234;2023-11-21T04:44:38;4.77;;;1.30;;
20445;SDS011;10382;49.140;9.234;2023-11-21T04:47:06;1.10;;;1.10;;
20445;SDS011;10382;49.140;9.234;2023-11-21T04:49:33;1.30;;;1.30;;
20445;SDS011;10382;49.140;9.234;2023-11-21T04:52:00;9.50;;;2.17;;
20445;SDS011;10382;49.140;9.234;2023-11-21T04:54:28;3.30;;;2.60;;
20445;SDS011;10382;49.140;9.234;2023-11-21T04:56:55;4.37;;;2.13;;
20445;SDS011;10382;49.140;9.234;2023-11-21T04:59:23;3.37;;;1.53;;
20445;SDS011;10382;49.140;9.234;2023-11-21T05:01:53;2.73;;;1.20;;
20445;SDS011;10382;49.140;9.234;2023-11-21T05:04:20;2.20;;;1.80;;
20445;SDS011;10382;49.140;9.234;2023-11-21T05:06:47;2.70;;;2.23;;
20445;SDS011;10382;49.140;9.234;2023-11-21T05:09:14;3.90;;;1.40;;
20445;SDS011;10382;49.140;9.234;2023-11-21T05:11:41;2.80;;;1.13;;
20445;SDS011;10382;49.140;9.234;2023-11-21T05:14:08;9.00;;;1.70;;
20445;SDS011;10382;49.140;9.234;2023-11-21T05:16:37;3.17;;;1.63;;
20445;SDS011;10382;49.140;9.234;2023-11-21T05:19:04;4.33;;;2.90;;
20445;SDS011;10382;49.140;9.234;2023-11-21T05:21:31;3.87;;;1.13;;
20445;SDS011;10382;49.140;9.234;2023-11-21T05:23:58;2.50;;;2.30;;
20445;SDS011;10382;49.140;9.234;2023-11-21T05:26:25;1.67;;;1.57;;
20445;SDS011;10382;49.140;9.234;2023-11-21T05:28:52;6.00;;;1.93;;
20445;SDS011;10382;49.140;9.234;2023-11-21T05:31:19;4.27;;;2.17;;
20445;SDS011;10382;49.140;9.234;2023-11-21T05:33:47;2.90;;;2.67;;
20445;SDS011;10382;49.140;9.234;2023-11-21T05:36:14;2.50;;;2.30;;
20445;SDS011;10382;49.140;9.234;2023-11-21T05:38:41;2.13;;;2.03;;
20445;SDS011;10382;49.140;9.234;2023-11-21T05:41:08;3.17;;;2.87;;
20445;SDS011;10382;49.140;9.234;2023-11-21T05:43:38;2.37;;;2.23;;
20445;SDS011;10382;49.140;9.234;2023-11-21T05:46:06;2.47;;;2.10;;
20445;SDS011;10382;49.140;9.234;2023-11-21T05:48:34;7.40;;;3.53;;
20445;SDS011;10382;49.140;9.234;2023-11-21T05:51:04;3.13;;;2.37;;
20445;SDS011;10382;49.140;9.234;2023-11-21T05:53:31;3.30;;;2.00;;
20445;SDS011;10382;49.140;9.234;2023-11-21T05:55:58;4.07;;;2.27;;
20445;SDS011;10382;49.140;9.234;2023-11-21T05:58:24;1.87;;;1.70;;
20445;SDS011;10382;49.140;9.234;2023-11-21T06:00:51;2.87;;;1.50;;
20445;SDS011;10382;49.140;9.234;2023-11-21T06:03:18;10.60;;;1.77;;
20445;SDS011;10382;49.140;9.234;2023-11-21T06:05:45;2.07;;;1.97;;
20445;SDS011;10382;49.140;9.234;2023-11-21T06:08:13;2.10;;;1.67;;
20445;SDS011;10382;49.140;9.234;2023-11-21T06:10:42;6.33;;;1.80;;
20445;SDS011;10382;49.140;9.234;2023-11-21T06:13:09;2.97;;;1.70;;
20445;SDS011;10382;49.140;9.234;2023-11-21T06:15:36;1.63;;;1.53;;
20445;SDS011;10382;49.140;9.234;2023-11-21T06:18:04;2.93;;;2.00;;
20445;SDS011;10382;49.140;9.234;2023-11-21T06:20:35;4.10;;;3.80;;
20445;SDS011;10382;49.140;9.234;2023-11-21T06:23:03;2.50;;;2.33;;
20445;SDS011;10382;49.140;9.234;2023-11-21T06:25:32;2.90;;;2.70;;
20445;SDS011;10382;49.140;9.234;2023-11-21T06:28:01;8.13;;;3.57;;
20445;SDS011;10382;49.140;9.234;2023-11-21T06:30:28;3.37;;;2.87;;
20445;SDS011;10382;49.140;9.234;2023-11-21T06:32:55;8.67;;;3.63;;
20445;SDS011;10382;49.140;9.234;2023-11-21T06:35:22;3.63;;;2.90;;
20445;SDS011;10382;49.140;9.234;2023-11-21T06:37:49;7.63;;;4.33;;
20445;SDS011;10382;49.140;9.234;2023-11-21T06:40:16;3.23;;;2.60;;
20445;SDS011;10382;49.140;9.234;2023-11-21T06:42:45;3.17;;;2.90;;
20445;SDS011;10382;49.140;9.234;2023-11-21T06:45:13;10.07;;;6.20;;
20445;SDS011;10382;49.140;9.234;2023-11-21T06:47:40;26.50;;;12.33;;
20445;SDS011;10382;49.140;9.234;2023-11-21T06:50:07;34.30;;;19.03;;
20445;SDS011;10382;49.140;9.234;2023-11-21T06:52:34;15.40;;;7.90;;
20445;SDS011;10382;49.140;9.234;2023-11-21T06:55:01;19.00;;;10.93;;
20445;SDS011;10382;49.140;9.234;2023-11-21T06:57:28;10.27;;;7.20;;
20445;SDS011;10382;49.140;9.234;2023-11-21T06:59:56;9.13;;;3.17;;
20445;SDS011;10382;49.140;9.234;2023-11-21T07:02:23;4.57;;;4.10;;
20445;SDS011;10382;49.140;9.234;2023-11-21T07:04:50;6.00;;;3.70;;
20445;SDS011;10382;49.140;9.234;2023-11-21T07:07:17;7.47;;;6.70;;
20445;SDS011;10382;49.140;9.234;2023-11-21T07:09:44;3.90;;;3.60;;
20445;SDS011;10382;49.140;9.234;2023-11-21T07:12:13;10.40;;;6.80;;
20445;SDS011;10382;49.140;9.234;2023-11-21T07:14:39;8.60;;;5.57;;
20445;SDS011;10382;49.140;9.234;2023-11-21T07:17:11;4.67;;;4.27;;
20445;SDS011;10382;49.140;9.234;2023-11-21T07:19:38;13.00;;;4.10;;
20445;SDS011;10382;49.140;9.234;2023-11-21T07:22:05;4.43;;;4.10;;
20445;SDS011;10382;49.140;9.234;2023-11-21T07:24:31;8.20;;;5.30;;
20445;SDS011;10382;49.140;9.234;2023-11-21T07:26:58;9.90;;;6.10;;
20445;SDS011;10382;49.140;9.234;2023-11-21T07:29:26;4.47;;;4.00;;
20445;SDS011;10382;49.140;9.234;2023-11-21T07:31:54;5.77;;;3.90;;
20445;SDS011;10382;49.140;9.234;2023-11-21T07:34:23;4.73;;;4.33;;
20445;SDS011;10382;49.140;9.234;2023-11-21T07:36:49;21.40;;;5.33;;
20445;SDS011;10382;49.140;9.234;2023-11-21T07:39:16;7.43;;;4.90;;
20445;SDS011;10382;49.140;9.234;2023-11-21T07:41:44;9.60;;;5.93;;
20445;SDS011;10382;49.140;9.234;2023-11-21T07:44:13;12.93;;;5.80;;
20445;SDS011;10382;49.140;9.234;2023-11-21T07:46:40;10.00;;;5.77;;
20445;SDS011;10382;49.140;9.234;2023-11-21T07:49:07;8.00;;;4.80;;
20445;SDS011;10382;49.140;9.234;2023-11-21T07:51:35;17.00;;;8.40;;
20445;SDS011;10382;49.140;9.234;2023-11-21T07:54:02;7.30;;;4.93;;
20445;SDS011;10382;49.140;9.234;2023-11-21T07:56:30;10.03;;;4.97;;
20445;SDS011;10382;49.140;9.234;2023-11-21T07:58:57;12.60;;;5.47;;
20445;SDS011;10382;49.140;9.234;2023-11-21T08:01:24;13.90;;;6.10;;
20445;SDS011;10382;49.140;9.234;2023-11-21T08:03:53;8.83;;;6.57;;
20445;SDS011;10382;49.140;9.234;2023-11-21T08:06:22;12.00;;;5.40;;
20445;SDS011;10382;49.140;9.234;2023-11-21T08:08:51;3.40;;;3.20;;
20445;SDS011;10382;49.140;9.234;2023-11-21T08:11:17;9.30;;;5.43;;
20445;SDS011;10382;49.140;9.234;2023-11-21T08:13:44;4.00;;;3.40;;
20445;SDS011;10382;49.140;9.234;2023-11-21T08:16:12;5.40;;;4.03;;
20445;SDS011;10382;49.140;9.234;2023-11-21T08:18:39;4.30;;;3.43;;
20445;SDS011;10382;49.140;9.234;2023-11-21T08:21:06;10.83;;;3.93;;
20445;SDS011;10382;49.140;9.234;2023-11-21T08:23:34;15.73;;;3.73;;
20445;SDS011;10382;49.140;9.234;2023-11-21T08:26:02;7.13;;;3.80;;
20445;SDS011;10382;49.140;9.234;2023-11-21T08:28:30;11.33;;;4.67;;
20445;SDS011;10382;49.140;9.234;2023-11-21T08:30:57;11.27;;;4.17;;
20445;SDS011;10382;49.140;9.234;2023-11-21T08:33:24;9.77;;;4.70;;
20445;SDS011;10382;49.140;9.234;2023-11-21T08:35:51;11.03;;;5.43;;
20445;SDS011;10382;49.140;9.234;2023-11-21T08:38:18;13.47;;;3.50;;
20445;SDS011;10382;49.140;9.234;2023-11-21T08:40:45;9.00;;;4.57;;
20445;SDS011;10382;49.140;9.234;2023-11-21T08:43:13;3.97;;;3.63;;
20445;SDS011;10382;49.140;9.234;2023-11-21T08:45:41;6.60;;;4.60;;
20445;SDS011;10382;49.140;9.234;2023-11-21T08:48:08;18.93;;;5.40;;
20445;SDS011;10382;49.140;9.234;2023-11-21T08:50:36;6.10;;;3.57;;
20445;SDS011;10382;49.140;9.234;2023-11-21T08:53:03;4.90;;;4.40;;
20445;SDS011;10382;49.140;9.234;2023-11-21T08:55:30;4.90;;;3.80;;
20445;SDS011;10382;49.140;9.234;2023-11-21T08:58:02;9.17;;;4.20;;
20445;SDS011;10382;49.140;9.234;2023-11-21T09:00:31;5.73;;;4.43;;
20445;SDS011;10382;49.140;9.234;2023-11-21T09:02:58;5.53;;;4.47;;
20445;SDS011;10382;49.140;9.234;2023-11-21T09:05:27;8.53;;;4.20;;
20445;SDS011;10382;49.140;9.234;2023-11-21T09:07:53;4.27;;;3.97;;
20445;SDS011;10382;49.140;9.234;2023-11-21T09:10:20;3.07;;;2.83;;
20445;SDS011;10382;49.140;9.234;2023-11-21T09:12:48;4.33;;;3.93;;
20445;SDS011;10382;49.140;9.234;2023-11-21T09:15:17;3.67;;;3.47;;
20445;SDS011;10382;49.140;9.234;2023-11-21T09:17:46;6.17;;;4.10;;
20445;SDS011;10382;49.140;9.234;2023-11-21T09:20:13;3.10;;;2.87;;
20445;SDS011;10382;49.140;9.234;2023-11-21T09:22:41;5.30;;;3.53;;
20445;SDS011;10382;49.140;9.234;2023-11-21T09:25:09;4.80;;;3.63;;
20445;SDS011;10382;49.140;9.234;2023-11-21T09:27:36;3.73;;;3.43;;
20445;SDS011;10382;49.140;9.234;2023-11-21T09:30:03;3.67;;;3.47;;
20445;SDS011;10382;49.140;9.234;2023-11-21T09:32:34;6.50;;;3.50;;
20445;SDS011;10382;49.140;9.234;2023-11-21T09:35:03;5.30;;;4.80;;
20445;SDS011;10382;49.140;9.234;2023-11-21T09:37:33;4.10;;;3.70;;
20445;SDS011;10382;49.140;9.234;2023-11-21T09:40:01;5.37;;;4.93;;
20445;SDS011;10382;49.140;9.234;2023-11-21T09:42:30;4.30;;;3.90;;
20445;SDS011;10382;49.140;9.234;2023-11-21T09:45:05;9.17;;;4.77;;
20445;SDS011;10382;49.140;9.234;2023-11-21T09:47:39;5.10;;;4.60;;
20445;SDS011;10382;49.140;9.234;2023-11-21T09:50:08;4.33;;;4.03;;
20445;SDS011;10382;49.140;9.234;2023-11-21T09:52:38;4.07;;;3.77;;
20445;SDS011;10382;49.140;9.234;2023-11-21T09:55:13;6.67;;;3.90;;
20445;SDS011;10382;49.140;9.234;2023-11-21T09:57:43;4.83;;;3.27;;
20445;SDS011;10382;49.140;9.234;2023-11-21T10:00:13;5.93;;;2.00;;
20445;SDS011;10382;49.140;9.234;2023-11-21T10:02:43;3.10;;;2.90;;
20445;SDS011;10382;49.140;9.234;2023-11-21T10:05:11;2.43;;;2.33;;
20445;SDS011;10382;49.140;9.234;2023-11-21T10:07:38;1.97;;;1.93;;
20445;SDS011;10382;49.140;9.234;2023-11-21T10:10:06;6.97;;;2.77;;
20445;SDS011;10382;49.140;9.234;2023-11-21T10:12:35;2.70;;;2.50;;
20445;SDS011;10382;49.140;9.234;2023-11-21T10:15:03;2.90;;;2.70;;
20445;SDS011;10382;49.140;9.234;2023-11-21T10:17:36;2.43;;;2.33;;
20445;SDS011;10382;49.140;9.234;2023-11-21T10:20:08;2.90;;;2.70;;
20445;SDS011;10382;49.140;9.234;2023-11-21T10:22:38;2.73;;;2.53;;
20445;SDS011;10382;49.140;9.234;2023-11-21T10:25:07;2.90;;;2.70;;
20445;SDS011;10382;49.140;9.234;2023-11-21T10:27:34;4.13;;;3.73;;
20445;SDS011;10382;49.140;9.234;2023-11-21T10:30:01;3.53;;;3.23;;
20445;SDS011;10382;49.140;9.234;2023-11-21T10:32:29;5.80;;;2.27;;
20445;SDS011;10382;49.140;9.234;2023-11-21T10:34:57;3.40;;;3.20;;
20445;SDS011;10382;49.140;9.234;2023-11-21T10:37:26;3.07;;;2.87;;
20445;SDS011;10382;49.140;9.234;2023-11-21T10:39:56;3.43;;;3.10;;
20445;SDS011;10382;49.140;9.234;2023-11-21T10:42:23;3.33;;;3.13;;
20445;SDS011;10382;49.140;9.234;2023-11-21T10:44:52;11.40;;;3.70;;
20445;SDS011;10382;49.140;9.234;2023-11-21T10:47:19;5.53;;;3.27;;
20445;SDS011;10382;49.140;9.234;2023-11-21T10:49:48;3.40;;;2.83;;
20445;SDS011;10382;49.140;9.234;2023-11-21T10:52:15;4.60;;;4.20;;
20445;SDS011;10382;49.140;9.234;2023-11-21T10:54:46;3.53;;;3.27;;
20445;SDS011;10382;49.140;9.234;2023-11-21T10:57:13;4.90;;;4.60;;
20445;SDS011;10382;49.140;9.234;2023-11-21T10:59:45;5.80;;;3.73;;
20445;SDS011;10382;49.140;9.234;2023-11-21T11:02:18;5.17;;;4.80;;
20445;SDS011;10382;49.140;9.234;2023-11-21T11:04:50;4.50;;;4.10;;
20445;SDS011;10382;49.140;9.234;2023-11-21T11:07:20;8.73;;;3.67;;
20445;SDS011;10382;49.140;9.234;2023-11-21T11:09:53;2.70;;;2.50;;
20445;SDS011;10382;49.140;9.234;2023-11-21T11:12:20;4.50;;;2.53;;
20445;SDS011;10382;49.140;9.234;2023-11-21T11:14:48;2.30;;;1.73;;
20445;SDS011;10382;49.140;9.234;2023-11-21T11:17:15;4.43;;;2.20;;
20445;SDS011;10382;49.140;9.234;2023-11-21T11:19:44;2.53;;;1.90;;
20445;SDS011;10382;49.140;9.234;2023-11-21T11:22:15;1.83;;;1.73;;
20445;SDS011;10382;49.140;9.234;2023-11-21T11:25:14;3.20;;;2.50;;
20445;SDS011;10382;49.140;9.234;2023-11-21T11:28:01;1.50;;;1.50;;
20445;SDS011;10382;49.140;9.234;2023-11-21T11:30:36;1.33;;;1.33;;
20445;SDS011;10382;49.140;9.234;2023-11-21T11:33:14;2.33;;;1.40;;
20445;SDS011;10382;49.140;9.234;2023-11-21T11:35:52;1.30;;;1.20;;
20445;SDS011;10382;49.140;9.234;2023-11-21T11:38:28;2.10;;;1.97;;
20445;SDS011;10382;49.140;9.234;2023-11-21T11:41:01;2.23;;;1.53;;
20445;SDS011;10382;49.140;9.234;2023-11-21T11:43:29;2.33;;;1.73;;
20445;SDS011;10382;49.140;9.234;2023-11-21T11:45:57;1.93;;;1.83;;
20445;SDS011;10382;49.140;9.234;2023-11-21T11:48:25;1.40;;;1.40;;
20445;SDS011;10382;49.140;9.234;2023-11-21T11:51:01;1.67;;;1.67;;
20445;SDS011;10382;49.140;9.234;2023-11-21T11:53:33;2.43;;;2.30;;
20445;SDS011;10382;49.140;9.234;2023-11-21T11:58:51;1.67;;;1.60;;
20445;SDS011;10382;49.140;9.234;2023-11-21T12:01:19;2.93;;;1.57;;
20445;SDS011;10382;49.140;9.234;2023-11-21T12:06:50;2.43;;;1.57;;
20445;SDS011;10382;49.140;9.234;2023-11-21T12:09:20;2.30;;;2.20;;
20445;SDS011;10382;49.140;9.234;2023-11-21T12:11:49;6.10;;;1.90;;
20445;SDS011;10382;49.140;9.234;2023-11-21T12:14:16;2.20;;;2.10;;
20445;SDS011;10382;49.140;9.234;2023-11-21T12:16:43;1.97;;;1.87;;
20445;SDS011;10382;49.140;9.234;2023-11-21T12:19:11;2.73;;;2.63;;
20445;SDS011;10382;49.140;9.234;2023-11-21T12:21:38;1.70;;;1.70;;
20445;SDS011;10382;49.140;9.234;2023-11-21T12:24:06;2.40;;;2.10;;
20445;SDS011;10382;49.140;9.234;2023-11-21T12:26:33;2.43;;;2.23;;
20445;SDS011;10382;49.140;9.234;2023-11-21T12:29:02;4.10;;;1.67;;
20445;SDS011;10382;49.140;9.234;2023-11-21T12:31:32;1.73;;;1.63;;
20445;SDS011;10382;49.140;9.234;2023-11-21T12:34:00;1.90;;;1.80;;
20445;SDS011;10382;49.140;9.234;2023-11-21T12:36:27;1.80;;;1.70;;
20445;SDS011;10382;49.140;9.234;2023-11-21T12:38:55;1.60;;;1.57;;
20445;SDS011;10382;49.140;9.234;2023-11-21T12:41:22;2.40;;;1.80;;
20445;SDS011;10382;49.140;9.234;2023-11-21T12:43:49;1.90;;;1.80;;
20445;SDS011;10382;49.140;9.234;2023-11-21T12:46:18;1.70;;;1.60;;
20445;SDS011;10382;49.140;9.234;2023-11-21T12:48:45;2.10;;;1.90;;
20445;SDS011;10382;49.140;9.234;2023-11-21T12:51:13;4.07;;;3.13;;
20445;SDS011;10382;49.140;9.234;2023-11-21T12:53:41;2.10;;;2.00;;
20445;SDS011;10382;49.140;9.234;2023-11-21T12:56:10;1.53;;;1.50;;
20445;SDS011;10382;49.140;9.234;2023-11-21T12:58:37;2.00;;;1.67;;
20445;SDS011;10382;49.140;9.234;2023-11-21T13:01:06;2.17;;;2.07;;
20445;SDS011;10382;49.140;9.234;2023-11-21T13:03:38;1.20;;;1.20;;
20445;SDS011;10382;49.140;9.234;2023-11-21T13:06:05;1.63;;;1.53;;
20445;SDS011;10382;49.140;9.234;2023-11-21T13:08:34;1.70;;;1.30;;
20445;SDS011;10382;49.140;9.234;2023-11-21T13:11:04;1.43;;;1.43;;
20445;SDS011;10382;49.140;9.234;2023-11-21T13:13:32;1.43;;;1.33;;
20445;SDS011;10382;49.140;9.234;2023-11-21T13:15:59;2.67;;;2.47;;
20445;SDS011;10382;49.140;9.234;2023-11-21T13:18:29;3.57;;;1.77;;
20445;SDS011;10382;49.140;9.234;2023-11-21T13:20:59;2.60;;;2.40;;
20445;SDS011;10382;49.140;9.234;2023-11-21T13:23:28;3.33;;;2.90;;
20445;SDS011;10382;49.140;9.234;2023-11-21T13:26:01;2.33;;;2.13;;
20445;SDS011;10382;49.140;9.234;2023-11-21T13:28:29;1.70;;;1.60;;
20445;SDS011;10382;49.140;9.234;2023-11-21T13:30:57;2.20;;;2.10;;
20445;SDS011;10382;49.140;9.234;2023-11-21T13:33:28;2.50;;;2.10;;
20445;SDS011;10382;49.140;9.234;2023-11-21T13:35:55;2.17;;;1.97;;
20445;SDS011;10382;49.140;9.234;2023-11-21T13:38:24;2.50;;;1.37;;
20445;SDS011;10382;49.140;9.234;2023-11-21T13:40:57;2.83;;;2.33;;
20445;SDS011;10382;49.140;9.234;2023-11-21T13:43:24;2.30;;;2.20;;
20445;SDS011;10382;49.140;9.234;2023-11-21T13:45:53;3.87;;;1.93;;
20445;SDS011;10382;49.140;9.234;2023-11-21T13:48:25;4.27;;;3.10;;
20445;SDS011;10382;49.140;9.234;2023-11-21T13:50:57;2.60;;;2.37;;
20445;SDS011;10382;49.140;9.234;2023-11-21T13:53:32;3.80;;;2.27;;
20445;SDS011;10382;49.140;9.234;2023-11-21T13:56:01;3.23;;;2.90;;
20445;SDS011;10382;49.140;9.234;2023-11-21T13:58:29;3.00;;;2.10;;
20445;SDS011;10382;49.140;9.234;2023-11-21T14:01:06;2.07;;;1.97;;
20445;SDS011;10382;49.140;9.234;2023-11-21T14:03:41;6.80;;;2.70;;
20445;SDS011;10382;49.140;9.234;2023-11-21T14:06:17;3.70;;;2.77;;
20445;SDS011;10382;49.140;9.234;2023-11-21T14:08:50;2.50;;;2.30;;
20445;SDS011;10382;49.140;9.234;2023-11-21T14:11:18;2.83;;;2.60;;
20445;SDS011;10382;49.140;9.234;2023-11-21T14:13:47;4.30;;;3.70;;
20445;SDS011;10382;49.140;9.234;2023-11-21T14:16:14;4.33;;;2.60;;
20445;SDS011;10382;49.140;9.234;2023-11-21T14:18:41;1.97;;;1.83;;
20445;SDS011;10382;49.140;9.234;2023-11-21T14:21:22;2.20;;;1.87;;
20445;SDS011;10382;49.140;9.234;2023-11-21T14:23:50;2.97;;;2.77;;
20445;SDS011;10382;49.140;9.234;2023-11-21T14:26:17;3.27;;;2.53;;
20445;SDS011;10382;49.140;9.234;2023-11-21T14:28:44;3.17;;;2.87;;
20445;SDS011;10382;49.140;9.234;2023-11-21T14:31:13;4.07;;;2.40;;
20445;SDS011;10382;49.140;9.234;2023-11-21T14:33:42;2.90;;;2.60;;
20445;SDS011;10382;49.140;9.234;2023-11-21T14:36:09;2.53;;;2.33;;
20445;SDS011;10382;49.140;9.234;2023-11-21T14:38:36;2.93;;;1.90;;
20445;SDS011;10382;49.140;9.234;2023-11-21T14:41:06;3.03;;;2.83;;
20445;SDS011;10382;49.140;9.234;2023-11-21T14:43:33;2.37;;;2.10;;
20445;SDS011;10382;49.140;9.234;2023-11-21T14:46:02;5.40;;;4.53;;
20445;SDS011;10382;49.140;9.234;2023-11-21T14:48:31;4.17;;;3.17;;
20445;SDS011;10382;49.140;9.234;2023-11-21T14:51:07;10.13;;;3.70;;
20445;SDS011;10382;49.140;9.234;2023-11-21T14:53:55;2.77;;;2.57;;
20445;SDS011;10382;49.140;9.234;2023-11-21T14:56:26;6.10;;;3.90;;
20445;SDS011;10382;49.140;9.234;2023-11-21T14:58:56;2.37;;;2.17;;